Terminal Aerodrome Forecast
Issued by NWS Tulsa, OK

Home | Current Version | Previous Version | Text Only | Print | Product List | Glossary On
Versions: 1 2 3 4 5 6 7 8 9 10 11 12 13
256
FTUS44 KTSA 170827 AAA
TAFFSM
TAF AMD
KFSM 170827Z 1708/1806 08009KT 4SM -RA BR OVC005
     FM171200 09005KT 4SM BR OVC007
     FM171700 15005KT P6SM OVC015
     FM180300 09003KT 5SM BR OVC007=

USA.gov is the U.S. government's official web portal to all federal, state and local government web resources and services.